sensor_id;sensor_type;location;lat;lon;timestamp;temperature;humidity
13721;DHT22;6932;51.438;5.470;2023-04-07T00:01:09;15.80;91.30
13721;DHT22;6932;51.438;5.470;2023-04-07T00:03:35;15.80;91.30
13721;DHT22;6932;51.438;5.470;2023-04-07T00:06:02;15.80;91.30
13721;DHT22;6932;51.438;5.470;2023-04-07T00:08:28;15.80;91.30
13721;DHT22;6932;51.438;5.470;2023-04-07T00:10:54;15.80;91.30
13721;DHT22;6932;51.438;5.470;2023-04-07T00:13:20;15.80;91.30
13721;DHT22;6932;51.438;5.470;2023-04-07T00:15:45;15.80;91.30
13721;DHT22;6932;51.438;5.470;2023-04-07T00:18:33;15.80;91.20
13721;DHT22;6932;51.438;5.470;2023-04-07T00:20:59;15.70;91.20
13721;DHT22;6932;51.438;5.470;2023-04-07T00:23:24;15.80;91.50
13721;DHT22;6932;51.438;5.470;2023-04-07T00:25:51;15.70;91.20
13721;DHT22;6932;51.438;5.470;2023-04-07T00:28:17;15.80;91.20
13721;DHT22;6932;51.438;5.470;2023-04-07T00:30:43;15.70;91.20
13721;DHT22;6932;51.438;5.470;2023-04-07T00:33:08;15.70;91.20
13721;DHT22;6932;51.438;5.470;2023-04-07T00:35:34;15.70;91.20
13721;DHT22;6932;51.438;5.470;2023-04-07T00:38:00;15.70;91.20
13721;DHT22;6932;51.438;5.470;2023-04-07T00:40:26;15.70;91.10
13721;DHT22;6932;51.438;5.470;2023-04-07T00:42:51;15.70;91.10
13721;DHT22;6932;51.438;5.470;2023-04-07T00:45:17;15.70;91.10
13721;DHT22;6932;51.438;5.470;2023-04-07T00:47:43;15.70;91.10
13721;DHT22;6932;51.438;5.470;2023-04-07T00:50:09;15.70;91.10
13721;DHT22;6932;51.438;5.470;2023-04-07T00:52:35;15.70;91.10
13721;DHT22;6932;51.438;5.470;2023-04-07T00:55:01;15.70;91.10
13721;DHT22;6932;51.438;5.470;2023-04-07T00:57:27;15.70;91.10
13721;DHT22;6932;51.438;5.470;2023-04-07T00:59:53;15.70;91.10
13721;DHT22;6932;51.438;5.470;2023-04-07T01:02:41;15.70;91.10
13721;DHT22;6932;51.438;5.470;2023-04-07T01:05:20;15.60;91.10
13721;DHT22;6932;51.438;5.470;2023-04-07T01:08:14;15.70;91.10
13721;DHT22;6932;51.438;5.470;2023-04-07T01:11:05;15.60;91.00
13721;DHT22;6932;51.438;5.470;2023-04-07T01:13:44;15.60;91.00
13721;DHT22;6932;51.438;5.470;2023-04-07T01:16:17;15.60;91.00
13721;DHT22;6932;51.438;5.470;2023-04-07T01:18:51;15.60;91.00
13721;DHT22;6932;51.438;5.470;2023-04-07T01:21:22;15.60;91.00
13721;DHT22;6932;51.438;5.470;2023-04-07T01:24:11;15.60;91.00
13721;DHT22;6932;51.438;5.470;2023-04-07T01:26:58;15.60;91.00
13721;DHT22;6932;51.438;5.470;2023-04-07T01:29:33;15.60;91.00
13721;DHT22;6932;51.438;5.470;2023-04-07T01:32:03;15.60;91.00
13721;DHT22;6932;51.438;5.470;2023-04-07T01:34:33;15.60;91.00
13721;DHT22;6932;51.438;5.470;2023-04-07T01:37:01;15.60;91.00
13721;DHT22;6932;51.438;5.470;2023-04-07T01:39:28;15.50;91.00
13721;DHT22;6932;51.438;5.470;2023-04-07T01:41:56;15.60;91.00
13721;DHT22;6932;51.438;5.470;2023-04-07T01:44:23;15.50;91.00
13721;DHT22;6932;51.438;5.470;2023-04-07T01:46:51;15.50;91.20
13721;DHT22;6932;51.438;5.470;2023-04-07T01:49:19;15.50;90.90
13721;DHT22;6932;51.438;5.470;2023-04-07T01:51:45;15.50;90.90
13721;DHT22;6932;51.438;5.470;2023-04-07T01:54:16;15.50;90.90
13721;DHT22;6932;51.438;5.470;2023-04-07T01:56:43;15.50;90.80
13721;DHT22;6932;51.438;5.470;2023-04-07T01:59:09;15.50;90.80
13721;DHT22;6932;51.438;5.470;2023-04-07T02:01:35;15.50;90.80
13721;DHT22;6932;51.438;5.470;2023-04-07T02:07:40;15.50;90.80
13721;DHT22;6932;51.438;5.470;2023-04-07T02:10:15;15.50;90.70
13721;DHT22;6932;51.438;5.470;2023-04-07T02:12:43;15.50;90.70
13721;DHT22;6932;51.438;5.470;2023-04-07T02:15:11;15.50;90.70
13721;DHT22;6932;51.438;5.470;2023-04-07T02:17:41;15.50;90.70
13721;DHT22;6932;51.438;5.470;2023-04-07T02:20:19;15.50;90.70
13721;DHT22;6932;51.438;5.470;2023-04-07T02:22:46;15.50;90.70
13721;DHT22;6932;51.438;5.470;2023-04-07T02:25:26;15.40;90.70
13721;DHT22;6932;51.438;5.470;2023-04-07T02:27:54;15.40;90.70
13721;DHT22;6932;51.438;5.470;2023-04-07T02:30:22;15.50;90.70
13721;DHT22;6932;51.438;5.470;2023-04-07T02:32:48;15.40;90.70
13721;DHT22;6932;51.438;5.470;2023-04-07T02:35:15;15.40;90.70
13721;DHT22;6932;51.438;5.470;2023-04-07T02:37:42;15.40;90.70
13721;DHT22;6932;51.438;5.470;2023-04-07T02:40:10;15.40;90.80
13721;DHT22;6932;51.438;5.470;2023-04-07T02:42:36;15.50;90.80
13721;DHT22;6932;51.438;5.470;2023-04-07T02:45:03;15.40;90.80
13721;DHT22;6932;51.438;5.470;2023-04-07T02:47:29;15.40;90.70
13721;DHT22;6932;51.438;5.470;2023-04-07T02:49:55;15.40;90.70
13721;DHT22;6932;51.438;5.470;2023-04-07T02:52:21;15.40;90.70
13721;DHT22;6932;51.438;5.470;2023-04-07T02:54:47;15.40;90.60
13721;DHT22;6932;51.438;5.470;2023-04-07T02:57:13;15.40;90.60
13721;DHT22;6932;51.438;5.470;2023-04-07T02:59:39;15.40;90.50
13721;DHT22;6932;51.438;5.470;2023-04-07T03:02:05;15.40;90.50
13721;DHT22;6932;51.438;5.470;2023-04-07T03:04:31;15.40;90.50
13721;DHT22;6932;51.438;5.470;2023-04-07T03:06:58;15.40;90.40
13721;DHT22;6932;51.438;5.470;2023-04-07T03:09:25;15.40;90.40
13721;DHT22;6932;51.438;5.470;2023-04-07T03:11:51;15.40;90.40
13721;DHT22;6932;51.438;5.470;2023-04-07T03:14:16;15.40;90.40
13721;DHT22;6932;51.438;5.470;2023-04-07T03:16:42;15.40;90.40
13721;DHT22;6932;51.438;5.470;2023-04-07T03:19:08;15.40;90.40
13721;DHT22;6932;51.438;5.470;2023-04-07T03:21:36;15.40;90.40
13721;DHT22;6932;51.438;5.470;2023-04-07T03:24:03;15.40;90.40
13721;DHT22;6932;51.438;5.470;2023-04-07T03:26:30;15.40;90.40
13721;DHT22;6932;51.438;5.470;2023-04-07T03:28:55;15.40;90.40
13721;DHT22;6932;51.438;5.470;2023-04-07T03:31:21;15.40;90.40
13721;DHT22;6932;51.438;5.470;2023-04-07T03:33:48;15.40;90.40
13721;DHT22;6932;51.438;5.470;2023-04-07T03:36:15;15.40;90.40
13721;DHT22;6932;51.438;5.470;2023-04-07T03:42:07;15.40;90.40
13721;DHT22;6932;51.438;5.470;2023-04-07T03:44:33;15.40;90.40
13721;DHT22;6932;51.438;5.470;2023-04-07T03:46:59;15.40;90.40
13721;DHT22;6932;51.438;5.470;2023-04-07T03:49:25;15.40;90.40
13721;DHT22;6932;51.438;5.470;2023-04-07T03:51:51;15.40;90.40
13721;DHT22;6932;51.438;5.470;2023-04-07T03:54:17;15.40;90.40
13721;DHT22;6932;51.438;5.470;2023-04-07T04:07:54;15.30;90.30
13721;DHT22;6932;51.438;5.470;2023-04-07T04:10:20;15.30;90.30
13721;DHT22;6932;51.438;5.470;2023-04-07T04:12:47;15.20;90.40
13721;DHT22;6932;51.438;5.470;2023-04-07T04:15:14;15.20;90.40
13721;DHT22;6932;51.438;5.470;2023-04-07T04:17:40;15.20;90.40
13721;DHT22;6932;51.438;5.470;2023-04-07T04:20:07;15.20;90.50
13721;DHT22;6932;51.438;5.470;2023-04-07T04:22:34;15.20;90.50
13721;DHT22;6932;51.438;5.470;2023-04-07T04:25:00;15.20;90.50
13721;DHT22;6932;51.438;5.470;2023-04-07T04:27:26;15.20;90.50
13721;DHT22;6932;51.438;5.470;2023-04-07T04:29:53;15.20;90.50
13721;DHT22;6932;51.438;5.470;2023-04-07T04:32:19;15.20;90.50
13721;DHT22;6932;51.438;5.470;2023-04-07T04:34:45;15.20;90.50
13721;DHT22;6932;51.438;5.470;2023-04-07T04:37:11;15.20;90.50
13721;DHT22;6932;51.438;5.470;2023-04-07T04:39:37;15.20;90.50
13721;DHT22;6932;51.438;5.470;2023-04-07T04:42:03;15.20;90.50
13721;DHT22;6932;51.438;5.470;2023-04-07T04:44:29;15.20;90.50
13721;DHT22;6932;51.438;5.470;2023-04-07T04:46:55;15.20;90.50
13721;DHT22;6932;51.438;5.470;2023-04-07T04:49:21;15.10;90.40
13721;DHT22;6932;51.438;5.470;2023-04-07T04:51:47;15.20;90.40
13721;DHT22;6932;51.438;5.470;2023-04-07T04:54:13;15.10;90.40
13721;DHT22;6932;51.438;5.470;2023-04-07T04:56:40;15.10;90.40
13721;DHT22;6932;51.438;5.470;2023-04-07T04:59:07;15.10;90.40
13721;DHT22;6932;51.438;5.470;2023-04-07T05:01:33;15.10;90.40
13721;DHT22;6932;51.438;5.470;2023-04-07T05:03:58;15.10;90.40
13721;DHT22;6932;51.438;5.470;2023-04-07T05:06:24;15.10;90.40
13721;DHT22;6932;51.438;5.470;2023-04-07T05:08:52;15.10;90.40
13721;DHT22;6932;51.438;5.470;2023-04-07T05:11:18;15.10;90.40
13721;DHT22;6932;51.438;5.470;2023-04-07T05:13:43;15.10;90.40
13721;DHT22;6932;51.438;5.470;2023-04-07T05:16:09;15.00;90.40
13721;DHT22;6932;51.438;5.470;2023-04-07T05:18:35;15.00;90.40
13721;DHT22;6932;51.438;5.470;2023-04-07T05:21:01;15.00;90.30
13721;DHT22;6932;51.438;5.470;2023-04-07T05:23:27;15.10;90.40
13721;DHT22;6932;51.438;5.470;2023-04-07T05:25:52;15.00;90.40
13721;DHT22;6932;51.438;5.470;2023-04-07T05:28:18;15.00;90.30
13721;DHT22;6932;51.438;5.470;2023-04-07T05:30:44;15.10;90.40
13721;DHT22;6932;51.438;5.470;2023-04-07T05:33:10;15.00;90.30
13721;DHT22;6932;51.438;5.470;2023-04-07T05:35:36;15.00;90.30
13721;DHT22;6932;51.438;5.470;2023-04-07T05:38:02;15.00;90.30
13721;DHT22;6932;51.438;5.470;2023-04-07T05:40:28;15.00;90.40
13721;DHT22;6932;51.438;5.470;2023-04-07T05:42:55;15.00;90.30
13721;DHT22;6932;51.438;5.470;2023-04-07T05:45:20;15.00;90.30
13721;DHT22;6932;51.438;5.470;2023-04-07T05:47:46;15.00;90.30
13721;DHT22;6932;51.438;5.470;2023-04-07T05:50:15;15.00;90.30
13721;DHT22;6932;51.438;5.470;2023-04-07T05:52:41;15.00;90.30
13721;DHT22;6932;51.438;5.470;2023-04-07T05:55:07;15.00;90.40
13721;DHT22;6932;51.438;5.470;2023-04-07T05:57:35;15.00;90.40
13721;DHT22;6932;51.438;5.470;2023-04-07T06:00:01;15.00;90.40
13721;DHT22;6932;51.438;5.470;2023-04-07T06:02:26;15.00;90.40
13721;DHT22;6932;51.438;5.470;2023-04-07T06:04:52;15.00;90.40
13721;DHT22;6932;51.438;5.470;2023-04-07T06:07:18;15.00;90.40
13721;DHT22;6932;51.438;5.470;2023-04-07T06:09:44;15.00;90.40
13721;DHT22;6932;51.438;5.470;2023-04-07T06:12:10;15.00;90.40
13721;DHT22;6932;51.438;5.470;2023-04-07T06:14:37;15.00;90.50
13721;DHT22;6932;51.438;5.470;2023-04-07T06:17:03;15.00;90.50
13721;DHT22;6932;51.438;5.470;2023-04-07T06:19:28;15.00;90.50
13721;DHT22;6932;51.438;5.470;2023-04-07T06:21:54;15.00;90.60
13721;DHT22;6932;51.438;5.470;2023-04-07T06:24:20;15.00;90.60
13721;DHT22;6932;51.438;5.470;2023-04-07T06:26:49;15.00;90.60
13721;DHT22;6932;51.438;5.470;2023-04-07T06:29:16;15.00;90.70
13721;DHT22;6932;51.438;5.470;2023-04-07T06:31:42;15.00;90.70
13721;DHT22;6932;51.438;5.470;2023-04-07T06:34:08;15.00;90.70
13721;DHT22;6932;51.438;5.470;2023-04-07T06:36:34;15.00;90.80
13721;DHT22;6932;51.438;5.470;2023-04-07T06:38:59;15.00;90.80
13721;DHT22;6932;51.438;5.470;2023-04-07T06:41:25;15.00;90.80
13721;DHT22;6932;51.438;5.470;2023-04-07T06:43:51;15.10;90.90
13721;DHT22;6932;51.438;5.470;2023-04-07T06:46:18;15.10;90.80
13721;DHT22;6932;51.438;5.470;2023-04-07T06:48:45;15.10;90.80
13721;DHT22;6932;51.438;5.470;2023-04-07T06:51:11;15.10;90.80
13721;DHT22;6932;51.438;5.470;2023-04-07T06:53:36;15.10;90.90
13721;DHT22;6932;51.438;5.470;2023-04-07T06:56:07;15.10;90.90
13721;DHT22;6932;51.438;5.470;2023-04-07T06:58:35;15.10;90.90
13721;DHT22;6932;51.438;5.470;2023-04-07T07:01:02;15.20;90.90
13721;DHT22;6932;51.438;5.470;2023-04-07T07:03:28;15.20;91.00
13721;DHT22;6932;51.438;5.470;2023-04-07T07:05:56;15.20;91.00
13721;DHT22;6932;51.438;5.470;2023-04-07T07:08:22;15.20;91.00
13721;DHT22;6932;51.438;5.470;2023-04-07T07:10:49;15.20;91.00
13721;DHT22;6932;51.438;5.470;2023-04-07T07:13:15;15.20;91.10
13721;DHT22;6932;51.438;5.470;2023-04-07T07:15:41;15.30;91.10
13721;DHT22;6932;51.438;5.470;2023-04-07T07:18:07;15.30;91.10
13721;DHT22;6932;51.438;5.470;2023-04-07T07:20:32;15.30;91.10
13721;DHT22;6932;51.438;5.470;2023-04-07T07:22:58;15.30;91.10
13721;DHT22;6932;51.438;5.470;2023-04-07T07:25:24;15.40;91.10
13721;DHT22;6932;51.438;5.470;2023-04-07T07:27:53;15.40;91.10
13721;DHT22;6932;51.438;5.470;2023-04-07T07:30:22;15.40;91.10
13721;DHT22;6932;51.438;5.470;2023-04-07T07:32:49;15.40;91.10
13721;DHT22;6932;51.438;5.470;2023-04-07T07:35:18;15.50;91.10
13721;DHT22;6932;51.438;5.470;2023-04-07T07:37:44;15.50;91.10
13721;DHT22;6932;51.438;5.470;2023-04-07T07:40:10;15.50;91.20
13721;DHT22;6932;51.438;5.470;2023-04-07T07:42:36;15.50;91.20
13721;DHT22;6932;51.438;5.470;2023-04-07T07:45:03;15.60;91.20
13721;DHT22;6932;51.438;5.470;2023-04-07T07:47:29;15.60;91.10
13721;DHT22;6932;51.438;5.470;2023-04-07T07:49:55;15.70;91.10
13721;DHT22;6932;51.438;5.470;2023-04-07T07:52:21;15.70;91.00
13721;DHT22;6932;51.438;5.470;2023-04-07T07:54:50;15.80;90.90
13721;DHT22;6932;51.438;5.470;2023-04-07T07:57:16;15.80;90.80
13721;DHT22;6932;51.438;5.470;2023-04-07T07:59:42;15.80;90.70
13721;DHT22;6932;51.438;5.470;2023-04-07T08:02:08;15.80;90.60
13721;DHT22;6932;51.438;5.470;2023-04-07T08:04:36;15.90;90.60
13721;DHT22;6932;51.438;5.470;2023-04-07T08:07:03;15.90;90.70
13721;DHT22;6932;51.438;5.470;2023-04-07T08:09:29;15.80;90.30
13721;DHT22;6932;51.438;5.470;2023-04-07T08:11:57;15.90;90.30
13721;DHT22;6932;51.438;5.470;2023-04-07T08:14:23;15.90;90.60
13721;DHT22;6932;51.438;5.470;2023-04-07T08:16:49;15.90;90.30
13721;DHT22;6932;51.438;5.470;2023-04-07T08:19:15;15.90;90.10
13721;DHT22;6932;51.438;5.470;2023-04-07T08:21:41;16.00;90.10
13721;DHT22;6932;51.438;5.470;2023-04-07T08:24:08;16.00;90.00
13721;DHT22;6932;51.438;5.470;2023-04-07T08:26:34;16.00;89.90
13721;DHT22;6932;51.438;5.470;2023-04-07T08:29:00;16.00;88.70
13721;DHT22;6932;51.438;5.470;2023-04-07T08:31:26;16.00;88.20
13721;DHT22;6932;51.438;5.470;2023-04-07T08:33:52;15.90;88.40
13721;DHT22;6932;51.438;5.470;2023-04-07T08:36:24;15.70;88.40
13721;DHT22;6932;51.438;5.470;2023-04-07T08:38:51;15.70;88.70
13721;DHT22;6932;51.438;5.470;2023-04-07T08:41:21;15.50;89.10
13721;DHT22;6932;51.438;5.470;2023-04-07T08:43:52;15.40;89.20
13721;DHT22;6932;51.438;5.470;2023-04-07T08:46:21;15.40;89.40
13721;DHT22;6932;51.438;5.470;2023-04-07T08:48:51;15.30;90.10
13721;DHT22;6932;51.438;5.470;2023-04-07T08:51:31;15.20;89.90
13721;DHT22;6932;51.438;5.470;2023-04-07T08:54:11;15.20;90.10
13721;DHT22;6932;51.438;5.470;2023-04-07T08:56:39;15.10;90.20
13721;DHT22;6932;51.438;5.470;2023-04-07T08:59:08;15.10;90.10
13721;DHT22;6932;51.438;5.470;2023-04-07T09:01:36;15.10;90.00
13721;DHT22;6932;51.438;5.470;2023-04-07T09:04:03;15.10;90.00
13721;DHT22;6932;51.438;5.470;2023-04-07T09:06:32;15.00;90.00
13721;DHT22;6932;51.438;5.470;2023-04-07T09:08:59;15.00;90.10
13721;DHT22;6932;51.438;5.470;2023-04-07T09:11:27;15.10;90.50
13721;DHT22;6932;51.438;5.470;2023-04-07T09:13:54;15.10;90.20
13721;DHT22;6932;51.438;5.470;2023-04-07T09:16:21;15.20;90.20
13721;DHT22;6932;51.438;5.470;2023-04-07T09:18:48;15.30;90.20
13721;DHT22;6932;51.438;5.470;2023-04-07T09:21:14;15.40;90.10
13721;DHT22;6932;51.438;5.470;2023-04-07T09:23:41;15.50;89.00
13721;DHT22;6932;51.438;5.470;2023-04-07T09:26:24;15.50;88.10
13721;DHT22;6932;51.438;5.470;2023-04-07T09:28:59;15.50;87.90
13721;DHT22;6932;51.438;5.470;2023-04-07T09:31:44;15.40;87.50
13721;DHT22;6932;51.438;5.470;2023-04-07T09:34:28;15.40;87.90
13721;DHT22;6932;51.438;5.470;2023-04-07T09:36:56;15.30;87.90
13721;DHT22;6932;51.438;5.470;2023-04-07T10:07:04;16.10;87.40
13721;DHT22;6932;51.438;5.470;2023-04-07T10:09:30;16.20;87.40
13721;DHT22;6932;51.438;5.470;2023-04-07T10:11:57;16.30;87.40
13721;DHT22;6932;51.438;5.470;2023-04-07T10:14:34;16.30;87.00
13721;DHT22;6932;51.438;5.470;2023-04-07T10:17:02;16.40;86.80
13721;DHT22;6932;51.438;5.470;2023-04-07T10:19:32;16.50;86.70
13721;DHT22;6932;51.438;5.470;2023-04-07T10:22:01;16.60;86.40
13721;DHT22;6932;51.438;5.470;2023-04-07T10:27:51;16.70;86.10
13721;DHT22;6932;51.438;5.470;2023-04-07T10:30:24;16.80;85.90
13721;DHT22;6932;51.438;5.470;2023-04-07T10:32:54;16.80;86.10
13721;DHT22;6932;51.438;5.470;2023-04-07T10:35:22;16.90;85.40
13721;DHT22;6932;51.438;5.470;2023-04-07T10:40:32;16.90;85.10
13721;DHT22;6932;51.438;5.470;2023-04-07T10:49:16;16.90;84.70
13721;DHT22;6932;51.438;5.470;2023-04-07T10:51:43;16.90;84.70
13721;DHT22;6932;51.438;5.470;2023-04-07T10:54:22;16.90;84.70
13721;DHT22;6932;51.438;5.470;2023-04-07T10:59:32;16.90;84.70
13721;DHT22;6932;51.438;5.470;2023-04-07T11:34:28;17.10;84.00
13721;DHT22;6932;51.438;5.470;2023-04-07T11:37:20;17.10;84.10
13721;DHT22;6932;51.438;5.470;2023-04-07T11:39:55;17.10;84.00
13721;DHT22;6932;51.438;5.470;2023-04-07T11:42:36;17.10;83.80
13721;DHT22;6932;51.438;5.470;2023-04-07T11:45:03;17.10;83.50
13721;DHT22;6932;51.438;5.470;2023-04-07T11:47:38;17.20;83.40
13721;DHT22;6932;51.438;5.470;2023-04-07T11:50:05;17.20;83.10
13721;DHT22;6932;51.438;5.470;2023-04-07T11:55:22;17.30;82.40
13721;DHT22;6932;51.438;5.470;2023-04-07T11:57:51;17.30;82.20
13721;DHT22;6932;51.438;5.470;2023-04-07T12:00:17;17.40;82.30
13721;DHT22;6932;51.438;5.470;2023-04-07T12:02:44;17.40;82.00
13721;DHT22;6932;51.438;5.470;2023-04-07T12:05:11;17.50;81.80
13721;DHT22;6932;51.438;5.470;2023-04-07T12:07:38;17.50;81.90
13721;DHT22;6932;51.438;5.470;2023-04-07T12:10:23;17.50;81.80
13721;DHT22;6932;51.438;5.470;2023-04-07T12:12:50;17.50;81.90
13721;DHT22;6932;51.438;5.470;2023-04-07T12:15:16;17.50;81.90
13721;DHT22;6932;51.438;5.470;2023-04-07T12:17:47;17.60;81.90
13721;DHT22;6932;51.438;5.470;2023-04-07T12:20:13;17.60;81.60
13721;DHT22;6932;51.438;5.470;2023-04-07T12:22:40;17.60;81.60
13721;DHT22;6932;51.438;5.470;2023-04-07T12:25:06;17.60;81.60
13721;DHT22;6932;51.438;5.470;2023-04-07T12:27:32;17.60;81.50
13721;DHT22;6932;51.438;5.470;2023-04-07T12:33:10;17.60;81.30
13721;DHT22;6932;51.438;5.470;2023-04-07T12:35:36;17.60;81.20
13721;DHT22;6932;51.438;5.470;2023-04-07T12:38:03;17.60;81.30
13721;DHT22;6932;51.438;5.470;2023-04-07T12:40:29;17.60;81.40
13721;DHT22;6932;51.438;5.470;2023-04-07T12:42:56;17.60;81.40
13721;DHT22;6932;51.438;5.470;2023-04-07T12:45:25;17.50;81.30
13721;DHT22;6932;51.438;5.470;2023-04-07T12:47:51;17.60;81.20
13721;DHT22;6932;51.438;5.470;2023-04-07T12:50:17;17.50;81.10
13721;DHT22;6932;51.438;5.470;2023-04-07T12:52:43;17.50;81.10
13721;DHT22;6932;51.438;5.470;2023-04-07T12:55:08;17.50;81.00
13721;DHT22;6932;51.438;5.470;2023-04-07T12:57:35;17.50;80.80
13721;DHT22;6932;51.438;5.470;2023-04-07T13:00:03;17.50;80.80
13721;DHT22;6932;51.438;5.470;2023-04-07T13:02:29;17.50;80.90
13721;DHT22;6932;51.438;5.470;2023-04-07T13:04:55;17.50;80.70
13721;DHT22;6932;51.438;5.470;2023-04-07T13:07:21;17.50;80.50
13721;DHT22;6932;51.438;5.470;2023-04-07T13:09:47;17.50;80.40
13721;DHT22;6932;51.438;5.470;2023-04-07T13:12:12;17.50;80.40
13721;DHT22;6932;51.438;5.470;2023-04-07T13:14:39;17.50;81.20
13721;DHT22;6932;51.438;5.470;2023-04-07T13:17:07;17.50;80.40
13721;DHT22;6932;51.438;5.470;2023-04-07T13:19:33;17.40;80.40
13721;DHT22;6932;51.438;5.470;2023-04-07T13:21:59;17.40;80.40
13721;DHT22;6932;51.438;5.470;2023-04-07T13:24:25;17.40;80.40
13721;DHT22;6932;51.438;5.470;2023-04-07T13:26:52;17.40;80.40
13721;DHT22;6932;51.438;5.470;2023-04-07T13:29:17;17.40;80.50
13721;DHT22;6932;51.438;5.470;2023-04-07T13:31:45;17.40;80.50
13721;DHT22;6932;51.438;5.470;2023-04-07T13:34:11;17.30;80.20
13721;DHT22;6932;51.438;5.470;2023-04-07T13:36:38;17.30;80.40
13721;DHT22;6932;51.438;5.470;2023-04-07T13:39:04;17.30;80.30
13721;DHT22;6932;51.438;5.470;2023-04-07T13:41:30;17.30;80.40
13721;DHT22;6932;51.438;5.470;2023-04-07T13:43:57;17.30;80.30
13721;DHT22;6932;51.438;5.470;2023-04-07T13:46:23;17.30;80.30
13721;DHT22;6932;51.438;5.470;2023-04-07T13:48:50;17.30;80.30
13721;DHT22;6932;51.438;5.470;2023-04-07T13:51:16;17.30;80.30
13721;DHT22;6932;51.438;5.470;2023-04-07T13:53:43;17.30;80.40
13721;DHT22;6932;51.438;5.470;2023-04-07T13:56:09;17.30;80.40
13721;DHT22;6932;51.438;5.470;2023-04-07T13:58:38;17.30;80.30
13721;DHT22;6932;51.438;5.470;2023-04-07T14:01:04;17.30;80.10
13721;DHT22;6932;51.438;5.470;2023-04-07T14:03:29;17.30;80.10
13721;DHT22;6932;51.438;5.470;2023-04-07T14:05:56;17.30;80.20
13721;DHT22;6932;51.438;5.470;2023-04-07T14:08:25;17.30;80.10
13721;DHT22;6932;51.438;5.470;2023-04-07T14:10:52;17.30;80.00
13721;DHT22;6932;51.438;5.470;2023-04-07T14:13:18;17.30;80.00
13721;DHT22;6932;51.438;5.470;2023-04-07T14:15:44;17.30;79.80
13721;DHT22;6932;51.438;5.470;2023-04-07T14:18:10;17.30;79.90
13721;DHT22;6932;51.438;5.470;2023-04-07T14:20:36;17.30;79.80
13721;DHT22;6932;51.438;5.470;2023-04-07T14:26:43;17.20;79.90
13721;DHT22;6932;51.438;5.470;2023-04-07T14:29:11;17.30;79.80
13721;DHT22;6932;51.438;5.470;2023-04-07T14:31:38;17.30;79.80
13721;DHT22;6932;51.438;5.470;2023-04-07T14:34:04;17.20;79.90
13721;DHT22;6932;51.438;5.470;2023-04-07T14:36:31;17.20;79.90
13721;DHT22;6932;51.438;5.470;2023-04-07T14:38:57;17.20;79.70
13721;DHT22;6932;51.438;5.470;2023-04-07T14:41:23;17.20;79.70
13721;DHT22;6932;51.438;5.470;2023-04-07T14:43:49;17.20;79.70
13721;DHT22;6932;51.438;5.470;2023-04-07T14:46:24;17.20;79.70
13721;DHT22;6932;51.438;5.470;2023-04-07T14:48:53;17.20;79.80
13721;DHT22;6932;51.438;5.470;2023-04-07T14:51:20;17.20;79.80
13721;DHT22;6932;51.438;5.470;2023-04-07T14:53:46;17.20;79.60
13721;DHT22;6932;51.438;5.470;2023-04-07T14:56:13;17.20;79.70
13721;DHT22;6932;51.438;5.470;2023-04-07T14:58:40;17.20;80.30
13721;DHT22;6932;51.438;5.470;2023-04-07T15:01:06;17.20;79.70
13721;DHT22;6932;51.438;5.470;2023-04-07T15:03:32;17.20;79.70
13721;DHT22;6932;51.438;5.470;2023-04-07T15:06:04;17.10;79.70
13721;DHT22;6932;51.438;5.470;2023-04-07T15:08:31;17.10;79.80
13721;DHT22;6932;51.438;5.470;2023-04-07T15:10:56;17.10;79.80
13721;DHT22;6932;51.438;5.470;2023-04-07T15:13:23;17.10;79.90
13721;DHT22;6932;51.438;5.470;2023-04-07T15:15:48;17.10;79.80
13721;DHT22;6932;51.438;5.470;2023-04-07T15:18:14;17.10;79.80
13721;DHT22;6932;51.438;5.470;2023-04-07T15:20:40;17.10;79.90
13721;DHT22;6932;51.438;5.470;2023-04-07T15:23:06;17.10;80.00
13721;DHT22;6932;51.438;5.470;2023-04-07T15:25:32;17.10;80.30
13721;DHT22;6932;51.438;5.470;2023-04-07T15:27:58;17.10;80.40
13721;DHT22;6932;51.438;5.470;2023-04-07T15:30:24;17.10;80.50
13721;DHT22;6932;51.438;5.470;2023-04-07T15:32:59;17.10;80.50
13721;DHT22;6932;51.438;5.470;2023-04-07T15:35:29;17.10;80.60
13721;DHT22;6932;51.438;5.470;2023-04-07T15:41:36;17.00;80.80
13721;DHT22;6932;51.438;5.470;2023-04-07T15:44:02;17.00;80.60
13721;DHT22;6932;51.438;5.470;2023-04-07T15:46:28;17.00;80.60
13721;DHT22;6932;51.438;5.470;2023-04-07T15:48:56;17.00;80.70
13721;DHT22;6932;51.438;5.470;2023-04-07T15:51:22;17.00;80.80
13721;DHT22;6932;51.438;5.470;2023-04-07T15:53:48;17.00;80.80
13721;DHT22;6932;51.438;5.470;2023-04-07T15:56:14;16.90;80.80
13721;DHT22;6932;51.438;5.470;2023-04-07T16:06:11;16.90;80.70
13721;DHT22;6932;51.438;5.470;2023-04-07T16:08:36;16.90;80.70
13721;DHT22;6932;51.438;5.470;2023-04-07T16:11:02;16.90;80.80
13721;DHT22;6932;51.438;5.470;2023-04-07T16:13:28;16.90;80.80
13721;DHT22;6932;51.438;5.470;2023-04-07T16:15:57;16.90;80.40
13721;DHT22;6932;51.438;5.470;2023-04-07T16:18:22;16.80;80.10
13721;DHT22;6932;51.438;5.470;2023-04-07T16:20:48;16.70;80.00
13721;DHT22;6932;51.438;5.470;2023-04-07T16:23:14;16.60;81.00
13721;DHT22;6932;51.438;5.470;2023-04-07T16:29:18;16.50;81.10
13721;DHT22;6932;51.438;5.470;2023-04-07T16:31:44;16.50;81.20
13721;DHT22;6932;51.438;5.470;2023-04-07T16:34:11;16.50;81.30
13721;DHT22;6932;51.438;5.470;2023-04-07T16:36:37;16.50;81.30
13721;DHT22;6932;51.438;5.470;2023-04-07T16:39:03;16.50;81.30
13721;DHT22;6932;51.438;5.470;2023-04-07T16:41:29;16.60;81.20
13721;DHT22;6932;51.438;5.470;2023-04-07T16:43:55;16.60;81.20
13721;DHT22;6932;51.438;5.470;2023-04-07T16:46:21;16.60;81.10
13721;DHT22;6932;51.438;5.470;2023-04-07T16:48:50;16.70;80.70
13721;DHT22;6932;51.438;5.470;2023-04-07T16:51:17;16.70;80.50
13721;DHT22;6932;51.438;5.470;2023-04-07T16:53:43;16.70;80.30
13721;DHT22;6932;51.438;5.470;2023-04-07T16:56:20;16.80;80.20
13721;DHT22;6932;51.438;5.470;2023-04-07T16:58:48;16.70;80.10
13721;DHT22;6932;51.438;5.470;2023-04-07T17:01:14;16.80;80.10
13721;DHT22;6932;51.438;5.470;2023-04-07T17:03:40;16.80;80.00
13721;DHT22;6932;51.438;5.470;2023-04-07T17:06:06;16.80;79.90
13721;DHT22;6932;51.438;5.470;2023-04-07T17:08:36;16.80;79.90
13721;DHT22;6932;51.438;5.470;2023-04-07T17:11:09;16.80;80.10
13721;DHT22;6932;51.438;5.470;2023-04-07T17:13:35;16.80;80.00
13721;DHT22;6932;51.438;5.470;2023-04-07T17:16:02;16.80;80.10
13721;DHT22;6932;51.438;5.470;2023-04-07T17:29:40;16.80;80.10
13721;DHT22;6932;51.438;5.470;2023-04-07T17:32:06;16.80;80.10
13721;DHT22;6932;51.438;5.470;2023-04-07T17:34:32;16.80;80.10
13721;DHT22;6932;51.438;5.470;2023-04-07T17:36:58;16.80;80.70
13721;DHT22;6932;51.438;5.470;2023-04-07T17:39:24;16.80;80.10
13721;DHT22;6932;51.438;5.470;2023-04-07T17:41:50;16.80;80.10
13721;DHT22;6932;51.438;5.470;2023-04-07T17:44:16;16.80;80.00
13721;DHT22;6932;51.438;5.470;2023-04-07T17:46:42;16.80;80.10
13721;DHT22;6932;51.438;5.470;2023-04-07T17:49:07;16.80;80.10
13721;DHT22;6932;51.438;5.470;2023-04-07T17:51:33;16.80;80.10
13721;DHT22;6932;51.438;5.470;2023-04-07T17:57:40;16.80;80.30
13721;DHT22;6932;51.438;5.470;2023-04-07T18:00:07;16.80;80.20